Puebla, Mexico

2:41 PM CST on February 06, 2016 (GMT -0600)
San Manuel | | Change Station
CLOSE
Current Station
Personal Weather Station
Location: Puebla, PUEBLA
Elevation: 7018 ft
Nearby Weather Stations

Elev 7018 ft 19.01 °N, 98.19 °W | Updated 9 minutes ago

Scattered Clouds
Scattered Clouds
72.5 °F
Feels Like 76 °F
N
12.0
Wind Variable Wind from SE
Gusts 12.0 mph

Today
High -- | Low -- °F
--% Chance of Precip.
Yesterday
High -- | Low -- °F
Precip. -- in
Pressure 30.33 in
Visibility 12.0 miles
Clouds Scattered Clouds 23000 ft
Heat Index 76 °F
Dew Point 39 °F
Humidity 30%
Rainfall 0.00 in
Snow Depth Not available.
7:05 AM 6:28 PM
Waning Crescent, 4% visible
METAR MMPB 061949Z 04011KT 12SM SCT230 23/M05 A3033 RMK 8/002 HZY
Pressure 30.33 in
Visibility 12.0 miles
Clouds Scattered Clouds 23000 ft
Heat Index 76 °F
Dew Point 39 °F
Humidity 30%
Rainfall 0.00 in
Snow Depth Not available.
7:05 AM 6:28 PM
Waning Crescent, 4% visible
METAR MMPB 061949Z 04011KT 12SM SCT230 23/M05 A3033 RMK 8/002 HZY

10-Day Weather Forecast

No radar image for this location.
×

Almanac

Astronomy

Feb. 06, 2016 Rise Set
Actual Time
Civil Twilight
Nautical Twilight
Astronomical Twilight
Moon
Length of Visible Light
Length of Day
Tomorrow will be .
, % of the Moon is Illuminated

Today's Extremes

Country Highs Country Lows

Community

WunderPhotos

Upload Photos

1,891,046 photos uploaded!

WunderBlog® & News

Nearby

Air Quality

  Air Quality AQ Index Pollutant
Not available.

Snow Depth

Station Depth Elevation

Earthquake Activity

City Distance Mag. Time & Date
Minimum magnitude displayed is 2.5.

Coastal Water Temperatures

Place Temperature

Stations

Nearby Weather Stations

Station Location Temp. Windchill Dew Point Humidity Wind Precip. Elev Updated Type